OMFJ

Details ICAO OMFJ (FJR)
Name FUJAIRAH INTL
Region United Arab Emirates
Timezone Asia/Dubai (UTC+4.0)
Plans Departing 15
Arriving 26
Stats Elevation 152 ft / 46 m (AMSL)
Location 25.112116° 56.324217°
Runways 1
Magnetic Variation 1.921° E
Sunrise 2017-12-11 02:51:10 UTC / 2017-12-11 06:51:10 Local
Sunset 2017-12-11 13:27:31 UTC / 2017-12-11 17:27:31 Local
Advertisement - Login to hide

Runways

ID Width Length Bearing (true) Bearing (mag) Surface Threshold Offset Overrun Length
11 148 ft / 45 m 12,296 ft / 3,748 m 112.53° 110.61° Asphalt 2,296 ft / 700 m 328 ft / 100 m
29 148 ft / 45 m 12,296 ft / 3,748 m 292.55° 290.63° Asphalt 0 ft / 0 m 328 ft / 100 m

Approach Navaids

Runway Type Ident Frequency Range Bearing (true) Bearing (mag) Slope Elevation
29 Localiser IFJR 111.50 MHz 18 nm / 33 km 292.53° 290.61° - 152 ft / 46 m (AMSL)
29 Glidescope IFJR 111.50 MHz 10 nm / 19 km 292.54° 290.62° 3.00° 152 ft / 46 m (AMSL)

Map

Weather


0- 5 10 15 20 25 30 35+ Temperature / ° C

Clouds and Precipitation
Forecast for 2017-12-11 00:00 UTC. Updated an hour ago

Ground ~20,000 ft ~40,000 ft Winds

METAR

OMFJ 110000Z 27007KT CAVOK 21/10 Q1018 A3006

TAF

Not found

Frequencies

Ground 119.45 MHz GND
Approach 129.40 MHz RADAR
Tower 124.60 MHz TWR
Warning: Do not use this data for real-world aviation or navigation. No guarantee of current accuracy is given.